createdAt,value
2022-11-25T00:01:33.590Z,100518.53
2022-11-25T00:04:01.762Z,100518.38
2022-11-25T00:06:32.110Z,100509.97
2022-11-25T00:09:07.241Z,100518.53
2022-11-25T00:11:36.897Z,100513.63
2022-11-25T00:14:05.124Z,100517.34
2022-11-25T00:16:32.716Z,100515.28
2022-11-25T00:19:00.371Z,100518.25
2022-11-25T00:21:31.522Z,100525.53
2022-11-25T00:24:01.818Z,100526.41
2022-11-25T00:26:32.812Z,100517.78
2022-11-25T00:29:02.579Z,100524.91
2022-11-25T00:31:32.955Z,100531.44
2022-11-25T00:34:00.725Z,100536.47
2022-11-25T00:36:36.872Z,100537.78
2022-11-25T00:39:13.506Z,100541.50
2022-11-25T00:42:00.739Z,100541.31
2022-11-25T00:44:38.965Z,100542.22
2022-11-25T00:47:18.374Z,100530.22
2022-11-25T00:49:53.951Z,100536.47
2022-11-25T00:52:24.442Z,100532.47
2022-11-25T00:54:52.943Z,100523.41
2022-11-25T00:57:22.832Z,100529.94
2022-11-25T00:59:50.919Z,100542.06
2022-11-25T01:02:21.964Z,100540.56
2022-11-25T01:04:49.684Z,100535.13
2022-11-25T01:07:17.944Z,100542.53
2022-11-25T01:09:45.869Z,100544.72
2022-11-25T01:12:13.486Z,100546.53
2022-11-25T01:14:41.413Z,100536.41
2022-11-25T01:17:09.026Z,100539.13
2022-11-25T01:19:40.179Z,100554.78
2022-11-25T01:22:09.573Z,100554.22
2022-11-25T01:24:37.451Z,100542.66
2022-11-25T01:27:05.173Z,100554.78
2022-11-25T01:29:32.635Z,100560.56
2022-11-25T01:32:00.372Z,100556.28
2022-11-25T01:34:28.695Z,100569.00
2022-11-25T01:36:58.461Z,100567.09
2022-11-25T01:39:32.110Z,100567.22
2022-11-25T01:42:01.945Z,100564.88
2022-11-25T01:44:33.061Z,100570.50
2022-11-25T01:47:16.026Z,100570.50
2022-11-25T01:50:09.838Z,100572.34
2022-11-25T01:52:42.517Z,100574.81
2022-11-25T01:55:17.696Z,100580.16
2022-11-25T01:58:08.708Z,100578.97
2022-11-25T02:00:37.944Z,100581.66
2022-11-25T02:03:06.446Z,100573.47
2022-11-25T02:05:50.244Z,100569.59
2022-11-25T02:08:20.091Z,100568.09
2022-11-25T02:10:47.790Z,100579.66
2022-11-25T02:13:16.094Z,100575.53
2022-11-25T02:15:43.547Z,100575.66
2022-11-25T02:18:11.172Z,100570.63
2022-11-25T02:20:40.343Z,100569.59
2022-11-25T02:23:49.215Z,100581.34
2022-11-25T02:26:17.531Z,100568.13
2022-11-25T02:28:45.322Z,100565.63
2022-11-25T02:31:12.972Z,100568.75
2022-11-25T02:33:40.579Z,100569.91
2022-11-25T02:36:20.106Z,100565.78
2022-11-25T02:38:59.476Z,100577.63
2022-11-25T02:41:43.174Z,100571.66
2022-11-25T02:44:10.946Z,100569.88
2022-11-25T02:46:40.052Z,100580.53
2022-11-25T02:49:09.212Z,100587.06
2022-11-25T02:51:39.191Z,100586.59
2022-11-25T02:54:06.985Z,100596.09
2022-11-25T02:56:36.238Z,100592.38
2022-11-25T02:59:04.352Z,100591.47
2022-11-25T03:01:32.957Z,100597.72
2022-11-25T03:04:01.128Z,100600.53
2022-11-25T03:06:29.728Z,100602.31
2022-11-25T03:08:57.897Z,100615.66
2022-11-25T03:11:46.265Z,100603.56
2022-11-25T03:14:14.902Z,100607.50
2022-11-25T03:16:44.060Z,100617.59
2022-11-25T03:19:12.079Z,100617.59
2022-11-25T03:21:39.548Z,100626.50
2022-11-25T03:24:07.936Z,100631.53
2022-11-25T03:26:35.375Z,100632.56
2022-11-25T03:29:03.020Z,100633.31
2022-11-25T03:31:31.868Z,100636.28
2022-11-25T03:33:59.657Z,100642.38
2022-11-25T03:36:29.322Z,100628.38
2022-11-25T03:38:56.847Z,100650.94
2022-11-25T03:41:24.385Z,100642.97
2022-11-25T03:43:51.897Z,100650.94
2022-11-25T03:46:19.616Z,100645.91
2022-11-25T03:48:47.489Z,100657.47
2022-11-25T03:51:15.012Z,100647.09
2022-11-25T03:53:43.845Z,100655.84
2022-11-25T03:56:11.370Z,100659.25
2022-11-25T03:58:39.080Z,100653.03
2022-11-25T04:01:08.636Z,100653.03
2022-11-25T04:03:36.488Z,100662.66
2022-11-25T04:06:04.864Z,100662.66
2022-11-25T04:08:32.647Z,100643.84
2022-11-25T04:11:00.384Z,100657.63
2022-11-25T04:13:32.079Z,100660.16
2022-11-25T04:15:59.551Z,100670.34
2022-11-25T04:18:27.157Z,100666.50
2022-11-25T04:20:57.266Z,100665.50
2022-11-25T04:23:24.835Z,100664.44
2022-11-25T04:26:01.774Z,100664.13
2022-11-25T04:28:37.154Z,100670.94
2022-11-25T04:31:09.398Z,100676.75
2022-11-25T04:33:40.156Z,100680.28
2022-11-25T04:36:09.326Z,100682.34
2022-11-25T04:38:37.013Z,100681.47
2022-11-25T04:41:06.558Z,100678.50
2022-11-25T04:43:44.216Z,100681.34
2022-11-25T04:46:25.462Z,100682.41
2022-11-25T04:48:53.076Z,100671.56
2022-11-25T04:51:21.923Z,100675.59
2022-11-25T04:53:53.094Z,100678.25
2022-11-25T04:56:23.397Z,100672.81
2022-11-25T04:59:12.539Z,100672.06
2022-11-25T05:01:44.654Z,100682.88
2022-11-25T05:04:32.515Z,100684.94
2022-11-25T05:07:01.023Z,100676.22
2022-11-25T05:09:29.599Z,100682.88
2022-11-25T05:12:25.641Z,100671.88
2022-11-25T05:14:53.163Z,100679.03
2022-11-25T05:17:25.595Z,100668.22
2022-11-25T05:19:53.438Z,100673.13
2022-11-25T05:22:23.905Z,100678.28
2022-11-25T05:24:53.571Z,100682.31
2022-11-25T05:27:22.393Z,100676.97
2022-11-25T05:29:55.718Z,100684.06
2022-11-25T05:32:24.955Z,100677.13
2022-11-25T05:34:54.338Z,100684.94
2022-11-25T05:37:24.594Z,100684.31
2022-11-25T05:39:59.595Z,100689.50
2022-11-25T05:42:45.480Z,100698.41
2022-11-25T05:45:13.116Z,100685.50
2022-11-25T05:47:41.222Z,100694.69
2022-11-25T05:50:11.459Z,100708.34
2022-11-25T05:52:39.067Z,100708.66
2022-11-25T05:55:07.720Z,100708.66
2022-11-25T05:57:35.248Z,100699.47
2022-11-25T06:00:09.964Z,100701.84
2022-11-25T06:02:50.490Z,100702.56
2022-11-25T06:05:19.018Z,100713.69
2022-11-25T06:07:46.653Z,100714.91
2022-11-25T06:10:14.929Z,100719.47
2022-11-25T06:12:42.719Z,100715.59
2022-11-25T06:15:11.284Z,100713.34
2022-11-25T06:17:42.516Z,100716.75
2022-11-25T06:20:16.003Z,100721.06
2022-11-25T06:22:43.575Z,100729.34
2022-11-25T06:25:11.235Z,100731.28
2022-11-25T06:28:10.867Z,100725.47
2022-11-25T06:30:27.687Z,100732.13
2022-11-25T06:33:21.168Z,100741.75
2022-11-25T06:35:49.672Z,100747.09
2022-11-25T06:38:17.251Z,100743.06
2022-11-25T06:40:46.955Z,100740.72
2022-11-25T06:43:14.494Z,100739.09
2022-11-25T06:45:41.916Z,100744.13
2022-11-25T06:48:09.422Z,100740.59
2022-11-25T06:50:36.917Z,100734.97
2022-11-25T06:53:04.443Z,100732.88
2022-11-25T06:55:31.957Z,100744.31
2022-11-25T06:58:20.729Z,100747.13
2022-11-25T07:00:46.844Z,100744.97
2022-11-25T07:03:14.399Z,100750.19
2022-11-25T07:05:41.974Z,100752.44
2022-11-25T07:08:09.434Z,100753.63
2022-11-25T07:10:36.969Z,100750.81
2022-11-25T07:13:04.514Z,100760.16
2022-11-25T07:15:34.951Z,100767.72
2022-11-25T07:18:02.425Z,100766.94
2022-11-25T07:20:30.165Z,100759.50
2022-11-25T07:22:57.649Z,100758.88
2022-11-25T07:25:30.470Z,100768.59
2022-11-25T07:27:58.323Z,100770.22
2022-11-25T07:33:13.552Z,100776.84
2022-11-25T07:35:41.006Z,100778.88
2022-11-25T07:38:08.435Z,100781.56
2022-11-25T07:40:36.014Z,100770.28
2022-11-25T07:43:04.204Z,100776.53
2022-11-25T07:45:32.324Z,100780.66
2022-11-25T07:48:07.853Z,100781.00
2022-11-25T07:50:35.331Z,100784.72
2022-11-25T07:53:02.856Z,100787.09
2022-11-25T07:55:30.511Z,100789.91
2022-11-25T07:57:57.979Z,100783.44
2022-11-25T08:00:25.589Z,100778.22
2022-11-25T08:02:53.530Z,100789.34
2022-11-25T08:05:21.211Z,100795.69
2022-11-25T08:07:48.759Z,100790.75
2022-11-25T08:10:16.343Z,100803.97
2022-11-25T08:12:43.940Z,100799.19
2022-11-25T08:15:13.155Z,100792.69
2022-11-25T08:17:40.616Z,100804.59
2022-11-25T08:20:10.547Z,100800.72
2022-11-25T08:22:37.983Z,100803.25
2022-11-25T08:25:05.890Z,100806.75
2022-11-25T08:27:33.420Z,100800.09
2022-11-25T08:30:00.892Z,100811.66
2022-11-25T08:32:31.713Z,100791.03
2022-11-25T08:34:59.338Z,100804.69
2022-11-25T08:37:26.982Z,100806.16
2022-11-25T08:39:54.731Z,100819.66
2022-11-25T08:42:22.921Z,100817.88
2022-11-25T08:44:55.885Z,100820.72
2022-11-25T08:47:24.380Z,100812.22
2022-11-25T08:49:55.522Z,100808.38
2022-11-25T08:52:23.410Z,100812.91
2022-11-25T08:54:51.057Z,100812.56
2022-11-25T08:57:18.528Z,100814.41
2022-11-25T08:59:46.139Z,100823.16
2022-11-25T09:02:16.591Z,100817.22
2022-11-25T09:04:44.814Z,100819.00
2022-11-25T09:07:12.528Z,100817.38
2022-11-25T09:09:40.198Z,100813.38
2022-11-25T09:12:08.361Z,100815.19
2022-11-25T09:14:35.910Z,100821.84
2022-11-25T09:17:09.087Z,100823.38
2022-11-25T09:19:36.794Z,100823.22
2022-11-25T09:22:04.568Z,100818.03
2022-11-25T09:24:32.298Z,100817.94
2022-11-25T09:26:59.857Z,100817.81
2022-11-25T09:29:27.960Z,100818.22
2022-11-25T09:31:55.500Z,100811.25
2022-11-25T09:34:23.101Z,100819.84
2022-11-25T09:36:51.758Z,100827.78
2022-11-25T09:39:19.651Z,100816.66
2022-11-25T09:42:32.982Z,100819.53
2022-11-25T09:45:37.117Z,100816.53
2022-11-25T09:48:49.502Z,100816.53
2022-11-25T09:51:43.624Z,100823.19
2022-11-25T09:54:16.360Z,100815.75
2022-11-25T09:56:51.615Z,100810.06
2022-11-25T09:59:45.502Z,100813.94
2022-11-25T10:02:37.913Z,100822.22
2022-11-25T10:05:20.148Z,100817.06
2022-11-25T10:07:53.333Z,100815.22
2022-11-25T10:10:29.912Z,100825.19
2022-11-25T10:12:59.366Z,100812.44
2022-11-25T10:15:37.271Z,100815.72
2022-11-25T10:18:13.570Z,100821.25
2022-11-25T10:20:42.691Z,100825.28
2022-11-25T10:23:24.953Z,100831.88
2022-11-25T10:26:02.878Z,100836.75
2022-11-25T10:28:35.209Z,100840.91
2022-11-25T10:31:19.875Z,100843.13
2022-11-25T10:33:48.835Z,100844.41
2022-11-25T10:36:24.424Z,100845.44
2022-11-25T10:39:00.726Z,100854.09
2022-11-25T10:41:43.127Z,100861.81
2022-11-25T10:44:27.505Z,100850.72
2022-11-25T10:47:32.395Z,100853.41
2022-11-25T10:50:14.684Z,100860.22
2022-11-25T10:52:55.423Z,100864.66
2022-11-25T10:55:26.962Z,100866.13
2022-11-25T10:57:55.434Z,100872.00
2022-11-25T11:00:27.922Z,100870.38
2022-11-25T11:02:57.092Z,100874.28
2022-11-25T11:05:30.452Z,100874.47
2022-11-25T11:08:15.416Z,100866.47
2022-11-25T11:10:43.451Z,100859.59
2022-11-25T11:13:33.311Z,100873.34
2022-11-25T11:16:00.944Z,100871.22
2022-11-25T11:18:39.946Z,100868.56
2022-11-25T11:21:21.028Z,100869.16
2022-11-25T11:23:54.103Z,100866.19
2022-11-25T11:26:33.675Z,100873.06
2022-11-25T11:29:04.159Z,100873.56
2022-11-25T11:31:39.421Z,100870.44
2022-11-25T11:34:27.664Z,100873.34
2022-11-25T11:37:33.744Z,100875.13
2022-11-25T11:40:31.333Z,100886.16
2022-11-25T11:43:38.486Z,100883.88
2022-11-25T11:46:36.886Z,100887.25
2022-11-25T11:49:27.609Z,100878.09
2022-11-25T11:52:25.524Z,100887.03
2022-11-25T11:54:59.209Z,100880.16
2022-11-25T11:57:53.909Z,100899.78
2022-11-25T12:00:22.652Z,100906.28
2022-11-25T12:03:14.796Z,100902.94
2022-11-25T12:05:42.642Z,100899.53
2022-11-25T12:08:19.555Z,100906.03
2022-11-25T12:11:13.820Z,100914.69
2022-11-25T12:14:07.964Z,100913.75
2022-11-25T12:16:46.852Z,100900.81
2022-11-25T12:19:24.017Z,100911.53
2022-11-25T12:22:00.744Z,100906.09
2022-11-25T12:24:57.032Z,100911.91
2022-11-25T12:30:16.478Z,100913.31
2022-11-25T12:32:53.082Z,100920.13
2022-11-25T12:35:57.377Z,100922.97
2022-11-25T12:38:45.525Z,100923.97
2022-11-25T12:41:42.853Z,100923.38
2022-11-25T12:44:25.394Z,100925.75
2022-11-25T12:46:56.284Z,100917.25
2022-11-25T12:49:29.934Z,100926.72
2022-11-25T12:52:17.097Z,100927.72
2022-11-25T12:55:03.299Z,100932.78
2022-11-25T12:57:54.682Z,100939.59
2022-11-25T13:00:41.669Z,100937.84
2022-11-25T13:03:31.212Z,100939.47
2022-11-25T13:06:49.814Z,100940.84
2022-11-25T13:09:22.888Z,100944.41
2022-11-25T13:12:18.519Z,100949.34
2022-11-25T13:14:55.220Z,100945.97
2022-11-25T13:17:24.305Z,100947.53
2022-11-25T13:20:29.874Z,100954.03
2022-11-25T13:23:10.403Z,100959.16
2022-11-25T13:25:41.307Z,100963.59
2022-11-25T13:28:27.137Z,100964.91
2022-11-25T13:30:55.038Z,100962.53
2022-11-25T13:33:25.251Z,100961.16
2022-11-25T13:35:55.177Z,100972.84
2022-11-25T13:38:59.730Z,100955.22
2022-11-25T13:41:42.728Z,100962.94
2022-11-25T13:44:13.357Z,100974.50
2022-11-25T13:46:51.625Z,100973.44
2022-11-25T13:49:36.353Z,100977.91
2022-11-25T13:52:29.133Z,100971.06
2022-11-25T13:54:57.579Z,100978.47
2022-11-25T13:57:29.589Z,100982.69
2022-11-25T14:00:10.418Z,100973.59
2022-11-25T14:02:45.510Z,100975.78
2022-11-25T14:05:37.239Z,100959.84
2022-11-25T14:08:39.819Z,100974.06
2022-11-25T14:11:10.025Z,100980.47
2022-11-25T14:13:46.305Z,100982.25
2022-11-25T14:16:32.438Z,100973.66
2022-11-25T14:19:51.738Z,100973.06
2022-11-25T14:22:31.097Z,100963.97
2022-11-25T14:25:26.825Z,100974.75
2022-11-25T14:28:22.186Z,100969.41
2022-11-25T14:31:00.952Z,100976.00
2022-11-25T14:33:43.782Z,100977.63
2022-11-25T14:36:15.507Z,100987.94
2022-11-25T14:38:52.871Z,100991.38
2022-11-25T14:41:25.812Z,101000.78
2022-11-25T14:43:58.801Z,100989.59
2022-11-25T14:46:26.360Z,100994.38
2022-11-25T14:49:07.626Z,100995.72
2022-11-25T14:51:41.959Z,100994.06
2022-11-25T14:54:10.645Z,101008.50
2022-11-25T14:56:39.326Z,101008.00
2022-11-25T14:59:09.921Z,101006.31
2022-11-25T15:01:40.049Z,101005.50
2022-11-25T15:04:15.889Z,101006.97
2022-11-25T15:06:50.411Z,101007.88
2022-11-25T15:09:24.926Z,101002.91
2022-11-25T15:12:11.437Z,101007.22
2022-11-25T15:14:47.773Z,101015.16
2022-11-25T15:17:37.623Z,101020.69
2022-11-25T15:20:19.845Z,101019.06
2022-11-25T15:22:52.543Z,101013.38
2022-11-25T15:25:20.494Z,101015.34
2022-11-25T15:27:52.648Z,101019.66
2022-11-25T15:30:27.228Z,101015.00
2022-11-25T15:32:56.482Z,101012.81
2022-11-25T15:35:26.310Z,101031.88
2022-11-25T15:37:56.915Z,101016.78
2022-11-25T15:40:44.486Z,101022.56
2022-11-25T15:43:31.931Z,101019.28
2022-11-25T15:46:05.657Z,101022.56
2022-11-25T15:48:46.340Z,101034.00
2022-11-25T15:51:44.673Z,101033.59
2022-11-25T15:54:20.970Z,101032.31
2022-11-25T15:56:51.638Z,101027.19
2022-11-25T15:59:38.564Z,101029.28
2022-11-25T16:02:39.150Z,101029.28
2022-11-25T16:05:12.282Z,101030.03
2022-11-25T16:08:20.948Z,101021.06
2022-11-25T16:11:12.355Z,101027.28
2022-11-25T16:13:40.458Z,101024.84
2022-11-25T16:16:07.964Z,101027.50
2022-11-25T16:18:40.979Z,101031.25
2022-11-25T16:21:30.904Z,101027.44
2022-11-25T16:24:07.691Z,101023.78
2022-11-25T16:26:49.401Z,101032.06
2022-11-25T16:29:39.419Z,101040.44
2022-11-25T16:32:19.208Z,101039.28
2022-11-25T16:34:46.930Z,101038.88
2022-11-25T16:37:14.638Z,101036.91
2022-11-25T16:39:42.450Z,101025.84
2022-11-25T16:42:28.164Z,101033.41
2022-11-25T16:44:55.736Z,101043.91
2022-11-25T16:47:24.381Z,101034.72
2022-11-25T16:49:52.123Z,101038.88
2022-11-25T16:52:19.814Z,101037.81
2022-11-25T16:54:47.600Z,101037.31
2022-11-25T16:57:22.012Z,101040.97
2022-11-25T16:59:57.255Z,101044.06
2022-11-25T17:02:26.301Z,101043.50
2022-11-25T17:04:54.046Z,101040.59
2022-11-25T17:07:38.377Z,101048.06
2022-11-25T17:10:07.351Z,101049.34
2022-11-25T17:12:36.385Z,101050.59
2022-11-25T17:15:06.931Z,101057.47
2022-11-25T17:17:34.969Z,101056.34
2022-11-25T17:20:07.176Z,101060.00
2022-11-25T17:22:39.141Z,101061.63
2022-11-25T17:25:08.033Z,101054.53
2022-11-25T17:27:35.691Z,101052.25
2022-11-25T17:30:06.715Z,101042.50
2022-11-25T17:32:35.039Z,101049.50
2022-11-25T17:35:02.642Z,101054.34
2022-11-25T17:37:32.065Z,101051.47
2022-11-25T17:39:59.932Z,101040.50
2022-11-25T17:42:31.585Z,101037.25
2022-11-25T17:45:00.660Z,101045.56
2022-11-25T17:47:28.359Z,101052.53
2022-11-25T17:49:55.984Z,101049.34
2022-11-25T17:52:23.719Z,101054.75
2022-11-25T17:54:51.375Z,101059.94
2022-11-25T17:57:21.749Z,101056.66
2022-11-25T17:59:49.697Z,101055.34
2022-11-25T18:02:22.403Z,101054.53
2022-11-25T18:04:50.602Z,101052.22
2022-11-25T18:07:19.003Z,101062.59
2022-11-25T18:09:47.109Z,101058.38
2022-11-25T18:12:34.537Z,101052.69
2022-11-25T18:15:07.989Z,101056.91
2022-11-25T18:17:37.258Z,101056.09
2022-11-25T18:20:22.116Z,101062.09
2022-11-25T18:22:50.927Z,101066.75
2022-11-25T18:25:28.804Z,101061.13
2022-11-25T18:27:57.204Z,101072.75
2022-11-25T18:30:28.244Z,101068.84
2022-11-25T18:32:57.401Z,101066.41
2022-11-25T18:35:35.679Z,101081.13
2022-11-25T18:38:04.844Z,101067.63
2022-11-25T18:40:33.645Z,101071.94
2022-11-25T18:43:03.610Z,101076.75
2022-11-25T18:45:39.324Z,101074.75
2022-11-25T18:48:18.940Z,101078.84
2022-11-25T18:50:47.942Z,101084.44
2022-11-25T18:53:15.858Z,101075.03
2022-11-25T18:55:43.867Z,101077.28
2022-11-25T18:58:20.572Z,101083.63
2022-11-25T19:00:49.996Z,101091.63
2022-11-25T19:03:26.269Z,101100.00
2022-11-25T19:05:59.546Z,101087.13
2022-11-25T19:08:27.666Z,101088.91
2022-11-25T19:10:56.136Z,101108.59
2022-11-25T19:13:28.728Z,101101.78
2022-11-25T19:16:02.261Z,101107.25
2022-11-25T19:18:30.054Z,101104.88
2022-11-25T19:20:57.731Z,101101.31
2022-11-25T19:23:28.120Z,101113.00
2022-11-25T19:26:01.091Z,101110.44
2022-11-25T19:28:31.066Z,101112.88
2022-11-25T19:31:03.318Z,101115.31
2022-11-25T19:33:40.524Z,101119.41
2022-11-25T19:36:17.351Z,101113.19
2022-11-25T19:38:45.057Z,101117.19
2022-11-25T19:41:12.527Z,101110.75
2022-11-25T19:43:40.147Z,101120.44
2022-11-25T19:46:29.617Z,101121.72
2022-11-25T19:49:03.296Z,101101.56
2022-11-25T19:51:34.015Z,101120.66
2022-11-25T19:54:01.535Z,101115.63
2022-11-25T19:56:29.203Z,101119.69
2022-11-25T19:58:57.239Z,101112.44
2022-11-25T20:01:32.358Z,101122.28
2022-11-25T20:04:00.176Z,101119.66
2022-11-25T20:06:28.364Z,101116.56
2022-11-25T20:09:01.205Z,101123.81
2022-11-25T20:11:32.501Z,101117.81
2022-11-25T20:13:59.973Z,101125.31
2022-11-25T20:16:38.612Z,101118.72
2022-11-25T20:19:07.348Z,101121.56
2022-11-25T20:21:40.325Z,101133.25
2022-11-25T20:24:14.745Z,101124.25
2022-11-25T20:26:46.098Z,101132.53
2022-11-25T20:29:19.834Z,101134.31
2022-11-25T20:31:48.216Z,101138.47
2022-11-25T20:34:15.912Z,101139.09
2022-11-25T20:36:44.781Z,101138.44
2022-11-25T20:39:20.434Z,101138.38
2022-11-25T20:41:52.803Z,101142.66
2022-11-25T20:44:21.209Z,101143.41
2022-11-25T20:46:48.846Z,101142.41
2022-11-25T20:49:27.645Z,101148.19
2022-11-25T20:51:56.819Z,101146.78
2022-11-25T20:54:24.826Z,101157.38
2022-11-25T20:56:52.633Z,101148.56
2022-11-25T20:59:22.253Z,101144.09
2022-11-25T21:01:54.625Z,101155.75
2022-11-25T21:04:22.614Z,101160.00
2022-11-25T21:06:50.088Z,101155.19
2022-11-25T21:09:25.109Z,101167.94
2022-11-25T21:11:52.682Z,101164.25
2022-11-25T21:14:20.372Z,101164.13
2022-11-25T21:16:49.372Z,101168.28
2022-11-25T21:19:16.901Z,101161.41
2022-11-25T21:21:46.980Z,101169.84
2022-11-25T21:24:38.733Z,101181.81
2022-11-25T21:27:14.621Z,101173.53
2022-11-25T21:29:43.914Z,101171.34
2022-11-25T21:32:23.550Z,101170.22
2022-11-25T21:34:51.447Z,101162.91
2022-11-25T21:37:32.540Z,101175.25
2022-11-25T21:40:00.648Z,101174.53
2022-11-25T21:42:30.010Z,101179.19
2022-11-25T21:44:57.842Z,101175.78
2022-11-25T21:47:28.910Z,101175.19
2022-11-25T21:49:56.465Z,101172.53
2022-11-25T21:52:24.665Z,101175.88
2022-11-25T21:54:52.191Z,101174.25
2022-11-25T21:57:27.815Z,101170.63
2022-11-25T21:59:55.878Z,101166.13
2022-11-25T22:02:24.822Z,101167.28
2022-11-25T22:04:52.452Z,101171.50
2022-11-25T22:07:20.031Z,101175.81
2022-11-25T22:09:47.635Z,101175.16
2022-11-25T22:12:30.363Z,101181.69
2022-11-25T22:14:59.690Z,101185.16
2022-11-25T22:17:29.386Z,101185.81
2022-11-25T22:19:57.292Z,101178.22
2022-11-25T22:22:25.019Z,101185.34
2022-11-25T22:24:52.710Z,101184.22
2022-11-25T22:27:26.034Z,101188.69
2022-11-25T22:29:55.678Z,101186.75
2022-11-25T22:32:23.518Z,101186.59
2022-11-25T22:34:50.995Z,101182.66
2022-11-25T22:37:20.797Z,101189.66
2022-11-25T22:39:48.739Z,101184.88
2022-11-25T22:42:31.956Z,101192.97
2022-11-25T22:45:02.155Z,101188.44
2022-11-25T22:47:39.204Z,101184.28
2022-11-25T22:50:17.653Z,101176.06
2022-11-25T22:52:45.249Z,101173.97
2022-11-25T22:55:17.713Z,101191.66
2022-11-25T22:57:45.787Z,101191.56
2022-11-25T23:00:20.029Z,101189.25
2022-11-25T23:02:49.845Z,101190.31
2022-11-25T23:05:37.298Z,101185.06
2022-11-25T23:08:25.982Z,101179.13
2022-11-25T23:10:53.724Z,101170.22
2022-11-25T23:13:22.009Z,101175.19
2022-11-25T23:15:53.754Z,101174.16
2022-11-25T23:18:26.402Z,101170.91
2022-11-25T23:20:54.304Z,101163.03
2022-11-25T23:23:25.355Z,101168.53
2022-11-25T23:25:53.120Z,101163.78
2022-11-25T23:28:20.826Z,101162.50
2022-11-25T23:30:54.220Z,101171.19
2022-11-25T23:33:38.038Z,101172.81
2022-11-25T23:36:28.546Z,101176.06
2022-11-25T23:38:59.310Z,101173.41
2022-11-25T23:41:30.146Z,101167.38
2022-11-25T23:44:02.181Z,101169.16
2022-11-25T23:46:33.349Z,101177.28
2022-11-25T23:49:02.993Z,101175.25
2022-11-25T23:51:30.979Z,101176.06
2022-11-25T23:53:59.013Z,101180.00
2022-11-25T23:56:28.121Z,101186.50
2022-11-25T23:58:55.638Z,101182.91
